createdAt,value
2019-06-19T00:00:52.481Z,17.11
2019-06-19T00:01:52.471Z,17.00
2019-06-19T00:02:53.284Z,17.11
2019-06-19T00:03:53.198Z,17.03
2019-06-19T00:04:52.693Z,17.14
2019-06-19T00:05:52.999Z,16.96
2019-06-19T00:06:52.429Z,17.04
2019-06-19T00:07:53.729Z,17.11
2019-06-19T00:08:52.384Z,16.97
2019-06-19T00:09:53.089Z,16.98
2019-06-19T00:10:52.939Z,16.85
2019-06-19T00:11:52.933Z,16.97
2019-06-19T00:12:53.066Z,17.04
2019-06-19T00:13:52.937Z,16.96
2019-06-19T00:14:52.693Z,16.91
2019-06-19T00:15:52.612Z,16.96
2019-06-19T00:16:53.378Z,16.96
2019-06-19T00:17:53.649Z,16.86
2019-06-19T00:18:53.186Z,16.83
2019-06-19T00:19:53.476Z,16.73
2019-06-19T00:20:52.267Z,16.66
2019-06-19T00:21:52.810Z,16.71
2019-06-19T00:22:53.071Z,16.73
2019-06-19T00:23:52.966Z,16.58
2019-06-19T00:24:53.142Z,16.60
2019-06-19T00:25:52.652Z,16.63
2019-06-19T00:26:50.832Z,16.49
2019-06-19T00:27:50.781Z,16.49
2019-06-19T00:28:51.092Z,16.53
2019-06-19T00:29:51.409Z,16.63
2019-06-19T00:30:52.918Z,16.56
2019-06-19T00:31:51.243Z,16.50
2019-06-19T00:32:51.368Z,16.57
2019-06-19T00:33:51.735Z,16.52
2019-06-19T00:34:50.966Z,16.52
2019-06-19T00:35:51.744Z,16.50
2019-06-19T00:36:50.976Z,16.48
2019-06-19T00:37:50.887Z,16.52
2019-06-19T00:38:51.083Z,16.50
2019-06-19T00:39:51.410Z,16.43
2019-06-19T00:40:51.942Z,16.38
2019-06-19T00:41:51.096Z,16.39
2019-06-19T00:42:51.571Z,16.41
2019-06-19T00:43:51.088Z,16.48
2019-06-19T00:44:51.435Z,16.39
2019-06-19T00:45:51.334Z,16.39
2019-06-19T00:46:51.519Z,16.43
2019-06-19T00:47:51.368Z,16.25
2019-06-19T00:48:51.835Z,16.35
2019-06-19T00:49:51.601Z,16.34
2019-06-19T00:50:51.272Z,16.33
2019-06-19T00:51:52.142Z,16.20
2019-06-19T00:52:51.368Z,16.27
2019-06-19T00:53:51.162Z,16.25
2019-06-19T00:54:50.732Z,16.27
2019-06-19T00:55:51.025Z,16.24
2019-06-19T00:56:50.963Z,16.43
2019-06-19T00:57:51.520Z,16.46
2019-06-19T00:58:51.181Z,16.38
2019-06-19T00:59:57.971Z,16.42
2019-06-19T01:00:51.749Z,16.28
2019-06-19T01:01:50.824Z,16.31
2019-06-19T01:02:51.332Z,16.23
2019-06-19T01:03:51.450Z,16.21
2019-06-19T01:04:51.799Z,16.20
2019-06-19T01:05:51.764Z,16.12
2019-06-19T01:06:51.149Z,16.24
2019-06-19T01:07:51.325Z,16.24
2019-06-19T01:08:49.398Z,16.11
2019-06-19T01:09:50.991Z,16.11
2019-06-19T01:10:50.984Z,16.12
2019-06-19T01:11:51.472Z,16.05
2019-06-19T01:12:50.790Z,15.92
2019-06-19T01:13:51.646Z,15.82
2019-06-19T01:14:51.303Z,15.96
2019-06-19T01:15:50.811Z,16.01
2019-06-19T01:16:51.033Z,16.12
2019-06-19T01:17:50.839Z,16.08
2019-06-19T01:18:51.280Z,15.92
2019-06-19T01:19:50.845Z,15.97
2019-06-19T01:20:51.061Z,16.00
2019-06-19T01:21:51.342Z,15.97
2019-06-19T01:22:51.525Z,15.93
2019-06-19T01:23:51.296Z,15.90
2019-06-19T01:24:51.057Z,15.84
2019-06-19T01:25:48.832Z,15.84
2019-06-19T01:26:51.064Z,15.82
2019-06-19T01:27:50.971Z,15.78
2019-06-19T01:28:51.001Z,15.74
2019-06-19T01:29:50.631Z,15.75
2019-06-19T01:30:50.909Z,15.80
2019-06-19T01:31:50.650Z,15.80
2019-06-19T01:32:51.183Z,15.83
2019-06-19T01:33:50.618Z,15.75
2019-06-19T01:34:50.798Z,15.78
2019-06-19T01:35:50.830Z,15.68
2019-06-19T01:36:50.727Z,15.67
2019-06-19T01:37:51.290Z,15.71
2019-06-19T01:38:48.380Z,15.62
2019-06-19T01:39:50.981Z,15.65
2019-06-19T01:40:51.118Z,15.68
2019-06-19T01:41:48.287Z,15.65
2019-06-19T01:42:48.253Z,15.67
2019-06-19T01:43:48.224Z,15.64
2019-06-19T01:44:48.181Z,15.62
2019-06-19T01:45:48.160Z,15.67
2019-06-19T01:46:48.121Z,15.71
2019-06-19T01:47:48.078Z,15.59
2019-06-19T01:48:48.050Z,15.57
2019-06-19T01:49:48.012Z,15.68
2019-06-19T01:50:50.459Z,15.65
2019-06-19T01:51:47.962Z,15.62
2019-06-19T01:52:47.953Z,15.56
2019-06-19T01:53:47.910Z,15.65
2019-06-19T01:54:47.879Z,15.62
2019-06-19T01:55:47.816Z,15.62
2019-06-19T01:56:47.813Z,15.56
2019-06-19T01:57:47.799Z,15.60
2019-06-19T01:58:47.752Z,15.56
2019-06-19T01:59:47.705Z,15.54
2019-06-19T02:00:47.670Z,15.53
2019-06-19T02:01:47.634Z,15.49
2019-06-19T02:02:47.618Z,15.49
2019-06-19T02:03:47.556Z,15.64
2019-06-19T02:04:47.551Z,15.68
2019-06-19T02:05:47.512Z,15.74
2019-06-19T02:06:47.478Z,15.68
2019-06-19T02:07:47.423Z,15.68
2019-06-19T02:08:47.408Z,15.67
2019-06-19T02:09:47.337Z,15.65
2019-06-19T02:10:47.300Z,15.69
2019-06-19T02:11:47.270Z,15.65
2019-06-19T02:12:47.241Z,15.69
2019-06-19T02:13:51.245Z,15.67
2019-06-19T02:14:47.184Z,15.65
2019-06-19T02:15:47.138Z,15.69
2019-06-19T02:16:47.130Z,15.67
2019-06-19T02:17:47.071Z,15.76
2019-06-19T02:18:47.040Z,15.72
2019-06-19T02:19:47.010Z,15.75
2019-06-19T02:20:46.965Z,15.75
2019-06-19T02:21:46.934Z,15.69
2019-06-19T02:22:46.899Z,15.68
2019-06-19T02:23:46.865Z,15.65
2019-06-19T02:24:46.838Z,15.69
2019-06-19T02:25:46.809Z,15.69
2019-06-19T02:26:46.763Z,15.65
2019-06-19T02:27:46.755Z,15.82
2019-06-19T02:28:46.719Z,15.83
2019-06-19T02:29:46.689Z,15.83
2019-06-19T02:31:04.293Z,15.89
2019-06-19T02:31:46.615Z,15.89
2019-06-19T02:32:46.583Z,15.90
2019-06-19T02:33:46.565Z,15.93
2019-06-19T02:34:46.542Z,15.84
2019-06-19T02:35:46.467Z,15.84
2019-06-19T02:36:46.438Z,15.90
2019-06-19T02:37:46.416Z,15.92
2019-06-19T02:38:46.401Z,16.00
2019-06-19T02:39:46.351Z,16.04
2019-06-19T02:40:46.318Z,16.01
2019-06-19T02:41:46.277Z,15.96
2019-06-19T02:42:46.279Z,15.93
2019-06-19T02:43:46.200Z,15.92
2019-06-19T02:44:48.678Z,15.89
2019-06-19T02:45:46.125Z,15.92
2019-06-19T02:46:46.091Z,16.01
2019-06-19T02:47:46.059Z,16.08
2019-06-19T02:48:46.020Z,16.12
2019-06-19T02:49:45.986Z,16.14
2019-06-19T02:50:45.959Z,15.97
2019-06-19T02:51:45.926Z,16.02
2019-06-19T02:52:45.894Z,15.96
2019-06-19T02:53:45.860Z,15.96
2019-06-19T02:54:45.816Z,16.01
2019-06-19T02:55:45.785Z,16.01
2019-06-19T02:56:45.759Z,15.94
2019-06-19T02:57:45.720Z,16.05
2019-06-19T02:58:45.720Z,16.05
2019-06-19T02:59:45.653Z,15.89
2019-06-19T03:00:45.625Z,15.92
2019-06-19T03:01:45.609Z,15.92
2019-06-19T03:02:45.578Z,15.92
2019-06-19T03:03:45.543Z,15.87
2019-06-19T03:04:45.500Z,15.83
2019-06-19T03:05:45.498Z,15.74
2019-06-19T03:06:45.441Z,15.89
2019-06-19T03:07:45.430Z,15.93
2019-06-19T03:08:45.369Z,15.90
2019-06-19T03:09:45.313Z,15.83
2019-06-19T03:10:45.327Z,15.82
2019-06-19T03:11:45.280Z,15.78
2019-06-19T03:12:45.232Z,15.82
2019-06-19T03:13:45.189Z,15.83
2019-06-19T03:14:45.214Z,15.84
2019-06-19T03:15:45.125Z,15.90
2019-06-19T03:16:45.082Z,15.90
2019-06-19T03:17:45.055Z,16.04
2019-06-19T03:18:45.024Z,15.93
2019-06-19T03:19:44.982Z,15.90
2019-06-19T03:20:44.951Z,15.90
2019-06-19T03:21:44.914Z,15.78
2019-06-19T03:22:44.886Z,15.92
2019-06-19T03:23:44.845Z,15.84
2019-06-19T03:24:44.818Z,15.87
2019-06-19T03:25:44.805Z,15.92
2019-06-19T03:26:44.750Z,15.87
2019-06-19T03:27:44.717Z,15.87
2019-06-19T03:28:44.705Z,15.93
2019-06-19T03:29:44.701Z,15.84
2019-06-19T03:30:44.627Z,15.84
2019-06-19T03:31:44.621Z,15.78
2019-06-19T03:32:44.571Z,15.92
2019-06-19T03:33:44.550Z,15.78
2019-06-19T03:34:44.472Z,15.90
2019-06-19T03:35:44.473Z,15.92
2019-06-19T03:36:44.426Z,15.92
2019-06-19T03:37:44.380Z,15.87
2019-06-19T03:38:44.376Z,15.90
2019-06-19T03:39:44.336Z,15.94
2019-06-19T03:40:44.326Z,15.96
2019-06-19T03:41:44.412Z,16.05
2019-06-19T03:42:44.281Z,16.07
2019-06-19T03:43:44.217Z,16.11
2019-06-19T03:44:44.147Z,16.11
2019-06-19T03:45:44.151Z,16.05
2019-06-19T03:46:44.105Z,16.08
2019-06-19T03:47:44.066Z,16.14
2019-06-19T03:48:44.030Z,16.14
2019-06-19T03:49:43.990Z,16.24
2019-06-19T03:50:43.958Z,16.27
2019-06-19T03:51:43.946Z,16.21
2019-06-19T03:52:43.922Z,16.21
2019-06-19T03:53:43.846Z,16.15
2019-06-19T03:54:43.797Z,16.20
2019-06-19T03:55:43.774Z,16.20
2019-06-19T03:56:43.725Z,16.20
2019-06-19T03:57:43.759Z,16.21
2019-06-19T03:58:43.691Z,16.28
2019-06-19T03:59:43.659Z,16.34
2019-06-19T04:00:43.625Z,16.27
2019-06-19T04:01:49.362Z,16.30
2019-06-19T04:02:43.574Z,16.25
2019-06-19T04:03:43.533Z,16.33
2019-06-19T04:04:43.474Z,16.30
2019-06-19T04:05:43.426Z,16.45
2019-06-19T04:06:43.415Z,16.52
2019-06-19T04:07:43.385Z,16.68
2019-06-19T04:08:43.365Z,16.89
2019-06-19T04:09:43.309Z,17.08
2019-06-19T04:10:43.295Z,16.93
2019-06-19T04:11:43.283Z,16.96
2019-06-19T04:12:43.212Z,17.07
2019-06-19T04:13:43.196Z,17.08
2019-06-19T04:14:43.195Z,17.07
2019-06-19T04:15:43.106Z,17.19
2019-06-19T04:16:43.078Z,17.15
2019-06-19T04:17:43.051Z,17.08
2019-06-19T04:18:42.995Z,17.07
2019-06-19T04:19:42.975Z,17.04
2019-06-19T04:20:42.944Z,17.22
2019-06-19T04:21:42.946Z,17.23
2019-06-19T04:22:42.904Z,17.37
2019-06-19T04:23:42.841Z,17.51
2019-06-19T04:24:42.798Z,17.44
2019-06-19T04:25:42.774Z,17.38
2019-06-19T04:26:42.730Z,17.48
2019-06-19T04:27:42.719Z,17.38
2019-06-19T04:28:42.691Z,17.31
2019-06-19T04:29:42.682Z,17.34
2019-06-19T04:30:42.656Z,17.37
2019-06-19T04:31:42.582Z,17.36
2019-06-19T04:32:42.573Z,17.54
2019-06-19T04:33:42.529Z,17.87
2019-06-19T04:34:42.528Z,18.21
2019-06-19T04:35:42.507Z,18.60
2019-06-19T04:36:42.443Z,18.70
2019-06-19T04:37:42.428Z,19.22
2019-06-19T04:38:42.392Z,19.84
2019-06-19T04:39:42.334Z,20.43
2019-06-19T04:40:42.280Z,21.10
2019-06-19T04:41:42.257Z,21.44
2019-06-19T04:42:42.248Z,22.03
2019-06-19T04:43:42.207Z,22.52
2019-06-19T04:44:42.151Z,23.00
2019-06-19T04:45:42.117Z,23.28
2019-06-19T04:46:42.120Z,23.76
2019-06-19T04:47:42.049Z,24.08
2019-06-19T04:48:42.033Z,24.45
2019-06-19T04:49:41.998Z,24.49
2019-06-19T04:50:41.968Z,24.67
2019-06-19T04:51:41.937Z,24.69
2019-06-19T04:52:44.726Z,24.43
2019-06-19T04:53:41.877Z,24.21
2019-06-19T04:54:41.839Z,23.69
2019-06-19T04:55:41.811Z,22.94
2019-06-19T04:56:41.798Z,22.51
2019-06-19T04:57:41.753Z,22.17
2019-06-19T04:58:41.732Z,22.10
2019-06-19T04:59:41.690Z,21.79
2019-06-19T05:00:41.708Z,21.61
2019-06-19T05:01:41.665Z,21.43
2019-06-19T05:02:41.599Z,21.35
2019-06-19T05:03:41.613Z,21.14
2019-06-19T05:04:41.541Z,20.88
2019-06-19T05:05:41.545Z,20.87
2019-06-19T05:06:41.502Z,21.03
2019-06-19T05:07:41.457Z,21.35
2019-06-19T05:08:41.455Z,21.50
2019-06-19T05:09:41.430Z,21.91
2019-06-19T05:10:41.357Z,22.28
2019-06-19T05:11:41.336Z,22.49
2019-06-19T05:12:41.311Z,22.85
2019-06-19T05:13:41.278Z,23.35
2019-06-19T05:14:41.243Z,23.76
2019-06-19T05:15:41.218Z,23.94
2019-06-19T05:16:41.199Z,24.37
2019-06-19T05:17:41.156Z,24.88
2019-06-19T05:18:41.131Z,25.52
2019-06-19T05:19:41.106Z,26.01
2019-06-19T05:20:41.075Z,26.32
2019-06-19T05:21:41.051Z,26.60
2019-06-19T05:22:41.018Z,26.97
2019-06-19T05:23:40.994Z,27.18
2019-06-19T05:24:40.964Z,27.00
2019-06-19T05:25:40.937Z,25.76
2019-06-19T05:26:40.928Z,24.39
2019-06-19T05:27:40.915Z,23.50
2019-06-19T05:28:40.896Z,23.20
2019-06-19T05:29:40.857Z,23.05
2019-06-19T05:30:40.803Z,23.17
2019-06-19T05:31:40.785Z,23.47
2019-06-19T05:32:40.754Z,23.61
2019-06-19T05:33:40.743Z,24.20
2019-06-19T05:34:40.706Z,24.53
2019-06-19T05:35:40.674Z,25.17
2019-06-19T05:36:40.664Z,25.42
2019-06-19T05:37:40.628Z,25.72
2019-06-19T05:38:40.602Z,26.29
2019-06-19T05:39:40.569Z,26.72
2019-06-19T05:40:40.543Z,27.13
2019-06-19T05:41:40.507Z,27.37
2019-06-19T05:42:40.478Z,27.25
2019-06-19T05:43:40.461Z,26.99
2019-06-19T05:44:40.446Z,26.80
2019-06-19T05:45:40.403Z,26.60
2019-06-19T05:46:40.370Z,25.98
2019-06-19T05:47:40.370Z,25.33
2019-06-19T05:48:40.331Z,25.02
2019-06-19T05:49:40.293Z,24.57
2019-06-19T05:50:40.274Z,24.18
2019-06-19T05:51:40.257Z,23.76
2019-06-19T05:52:40.231Z,23.88
2019-06-19T05:53:40.219Z,23.75
2019-06-19T05:54:40.177Z,23.65
2019-06-19T05:55:40.153Z,23.47
2019-06-19T05:56:40.124Z,23.68
2019-06-19T05:57:40.162Z,23.91
2019-06-19T05:58:40.086Z,24.09
2019-06-19T05:59:40.072Z,24.09
2019-06-19T06:00:40.060Z,24.16
2019-06-19T06:01:40.104Z,24.28
2019-06-19T06:02:51.539Z,24.34
2019-06-19T06:03:39.955Z,24.45
2019-06-19T06:04:39.938Z,24.49
2019-06-19T06:05:39.915Z,24.81
2019-06-19T06:06:39.892Z,25.18
2019-06-19T06:07:39.883Z,25.27
2019-06-19T06:08:39.809Z,25.72
2019-06-19T06:09:39.781Z,25.87
2019-06-19T06:10:39.780Z,26.09
2019-06-19T06:11:39.731Z,26.20
2019-06-19T06:12:39.728Z,26.32
2019-06-19T06:13:39.673Z,26.18
2019-06-19T06:14:39.671Z,26.05
2019-06-19T06:15:39.666Z,26.09
2019-06-19T06:16:39.680Z,26.15
2019-06-19T06:17:39.612Z,26.51
2019-06-19T06:18:39.563Z,27.14
2019-06-19T06:19:39.524Z,28.09
2019-06-19T06:20:39.493Z,28.70
2019-06-19T06:21:39.478Z,29.18
2019-06-19T06:22:39.472Z,29.21
2019-06-19T06:23:39.438Z,28.59
2019-06-19T06:24:39.394Z,28.29
2019-06-19T06:25:39.399Z,28.00
2019-06-19T06:26:39.344Z,27.72
2019-06-19T06:27:39.315Z,27.66
2019-06-19T06:28:39.304Z,27.32
2019-06-19T06:29:39.281Z,27.44
2019-06-19T06:30:39.275Z,27.55
2019-06-19T06:31:39.240Z,27.75
2019-06-19T06:32:39.201Z,27.43
2019-06-19T06:33:39.183Z,27.21
2019-06-19T06:34:39.176Z,27.31
2019-06-19T06:35:39.126Z,27.07
2019-06-19T06:36:39.099Z,27.12
2019-06-19T06:37:39.115Z,27.18
2019-06-19T06:38:39.070Z,27.29
2019-06-19T06:39:39.027Z,27.34
2019-06-19T06:40:47.863Z,27.41
2019-06-19T06:41:38.982Z,27.24
2019-06-19T06:42:38.968Z,27.21
2019-06-19T06:43:38.919Z,27.44
2019-06-19T06:44:38.885Z,27.51
2019-06-19T06:45:38.863Z,27.72
2019-06-19T06:46:38.837Z,27.81
2019-06-19T06:47:38.818Z,28.02
2019-06-19T06:48:38.797Z,28.03
2019-06-19T06:49:38.764Z,28.17
2019-06-19T06:50:38.736Z,28.19
2019-06-19T06:51:38.718Z,28.09
2019-06-19T06:52:38.684Z,28.22
2019-06-19T06:53:38.668Z,28.34
2019-06-19T06:54:38.659Z,28.09
2019-06-19T06:55:38.624Z,28.14
2019-06-19T06:56:38.644Z,28.54
2019-06-19T06:57:38.594Z,28.51
2019-06-19T06:58:38.571Z,28.58
2019-06-19T06:59:38.578Z,28.67
2019-06-19T07:00:38.528Z,29.28
2019-06-19T07:01:38.485Z,29.51
2019-06-19T07:02:38.448Z,30.10
2019-06-19T07:03:38.460Z,30.58
2019-06-19T07:04:38.410Z,31.13
2019-06-19T07:05:38.404Z,31.48
2019-06-19T07:06:38.389Z,31.44
2019-06-19T07:07:38.365Z,31.35
2019-06-19T07:08:38.309Z,31.68
2019-06-19T07:09:38.325Z,31.93
2019-06-19T07:10:38.288Z,31.91
2019-06-19T07:11:38.256Z,31.73
2019-06-19T07:12:38.208Z,31.80
2019-06-19T07:13:38.191Z,31.39
2019-06-19T07:14:38.167Z,31.29
2019-06-19T07:15:38.143Z,31.69
2019-06-19T07:16:38.126Z,32.22
2019-06-19T07:17:38.101Z,32.47
2019-06-19T07:18:38.097Z,32.66
2019-06-19T07:19:38.067Z,32.81
2019-06-19T07:20:38.031Z,32.89
2019-06-19T07:21:38.033Z,33.09
2019-06-19T07:22:38.023Z,32.87
2019-06-19T07:23:37.994Z,32.81
2019-06-19T07:24:37.950Z,33.04
2019-06-19T07:25:37.969Z,32.94
2019-06-19T07:26:52.190Z,32.94
2019-06-19T07:27:37.903Z,33.42
2019-06-19T07:28:37.887Z,33.45
2019-06-19T07:29:37.897Z,33.69
2019-06-19T07:30:37.888Z,33.53
2019-06-19T07:31:37.879Z,33.75
2019-06-19T07:32:37.809Z,33.69
2019-06-19T07:33:41.724Z,33.79
2019-06-19T07:34:37.768Z,34.22
2019-06-19T07:35:37.748Z,34.39
2019-06-19T07:36:37.746Z,34.61
2019-06-19T07:37:37.706Z,34.25
2019-06-19T07:38:37.743Z,33.82
2019-06-19T07:39:37.695Z,33.93
2019-06-19T07:40:37.674Z,34.19
2019-06-19T07:41:37.630Z,34.52
2019-06-19T07:42:37.617Z,34.34
2019-06-19T07:43:39.329Z,34.49
2019-06-19T07:44:37.615Z,34.16
2019-06-19T07:45:37.562Z,33.93
2019-06-19T07:46:37.521Z,34.32
2019-06-19T07:47:37.502Z,34.73
2019-06-19T07:48:37.494Z,34.99
2019-06-19T07:49:37.487Z,34.99
2019-06-19T07:50:37.449Z,34.85
2019-06-19T07:51:37.434Z,34.30
2019-06-19T07:52:37.399Z,34.52
2019-06-19T07:53:37.390Z,34.40
2019-06-19T07:54:37.418Z,34.12
2019-06-19T07:55:37.372Z,33.91
2019-06-19T07:56:37.339Z,33.87
2019-06-19T07:57:37.365Z,34.40
2019-06-19T07:58:37.290Z,34.72
2019-06-19T07:59:37.310Z,34.42
2019-06-19T08:00:37.305Z,34.61
2019-06-19T08:01:37.269Z,34.91
2019-06-19T08:02:37.241Z,34.99
2019-06-19T08:03:37.261Z,35.52
2019-06-19T08:04:37.247Z,35.19
2019-06-19T08:05:37.284Z,35.78
2019-06-19T08:06:37.166Z,35.92
2019-06-19T08:07:37.179Z,36.12
2019-06-19T08:08:37.153Z,36.23
2019-06-19T08:09:37.096Z,36.19
2019-06-19T08:10:37.115Z,36.35
2019-06-19T08:11:37.113Z,36.08
2019-06-19T08:12:37.091Z,35.80
2019-06-19T08:13:37.089Z,35.66
2019-06-19T08:14:37.029Z,35.74
2019-06-19T08:15:37.003Z,35.44
2019-06-19T08:16:36.972Z,35.74
2019-06-19T08:17:36.970Z,36.08
2019-06-19T08:18:36.943Z,36.41
2019-06-19T08:19:36.927Z,35.53
2019-06-19T08:20:36.917Z,35.18
2019-06-19T08:21:37.119Z,35.75
2019-06-19T08:22:36.874Z,35.77
2019-06-19T08:23:36.858Z,36.12
2019-06-19T08:24:36.842Z,36.03
2019-06-19T08:25:36.824Z,36.28
2019-06-19T08:26:36.812Z,35.60
2019-06-19T08:27:36.793Z,35.77
2019-06-19T08:28:36.771Z,36.13
2019-06-19T08:29:36.764Z,36.31
2019-06-19T08:30:36.756Z,36.38
2019-06-19T08:31:36.735Z,36.62
2019-06-19T08:32:36.721Z,36.38
2019-06-19T08:33:36.765Z,36.35
2019-06-19T08:34:48.832Z,36.60
2019-06-19T08:35:36.670Z,36.91
2019-06-19T08:36:36.646Z,36.99
2019-06-19T08:37:36.671Z,37.02
2019-06-19T08:38:36.630Z,37.07
2019-06-19T08:39:36.615Z,37.12
2019-06-19T08:40:36.586Z,37.18
2019-06-19T08:41:36.580Z,37.21
2019-06-19T08:42:36.560Z,36.88
2019-06-19T08:43:36.565Z,37.10
2019-06-19T08:44:36.509Z,37.66
2019-06-19T08:45:36.523Z,37.66
2019-06-19T08:46:36.506Z,37.94
2019-06-19T08:47:36.474Z,38.07
2019-06-19T08:48:36.470Z,37.63
2019-06-19T08:49:36.442Z,37.40
2019-06-19T08:50:36.411Z,37.20
2019-06-19T08:51:36.419Z,37.15
2019-06-19T08:52:36.395Z,37.07
2019-06-19T08:53:36.363Z,36.94
2019-06-19T08:54:36.366Z,36.43
2019-06-19T08:55:36.362Z,36.08
2019-06-19T08:56:36.323Z,36.56
2019-06-19T08:57:36.313Z,36.85
2019-06-19T08:58:36.279Z,37.24
2019-06-19T08:59:36.280Z,37.31
2019-06-19T09:00:36.265Z,37.02
2019-06-19T09:01:36.267Z,37.29
2019-06-19T09:02:36.237Z,37.44
2019-06-19T09:03:36.199Z,37.41
2019-06-19T09:04:36.181Z,36.99
2019-06-19T09:05:36.169Z,36.41
2019-06-19T09:06:36.190Z,36.41
2019-06-19T09:07:36.167Z,36.64
2019-06-19T09:08:36.127Z,36.37
2019-06-19T09:09:36.140Z,36.80
2019-06-19T09:10:36.127Z,36.93
2019-06-19T09:11:36.078Z,37.00
2019-06-19T09:12:36.095Z,36.90
2019-06-19T09:13:36.090Z,36.64
2019-06-19T09:14:36.056Z,36.27
2019-06-19T09:15:36.048Z,36.19
2019-06-19T09:16:35.985Z,36.31
2019-06-19T09:17:36.004Z,36.44
2019-06-19T09:18:35.974Z,36.32
2019-06-19T09:19:35.985Z,36.64
2019-06-19T09:20:35.955Z,36.53
2019-06-19T09:21:35.945Z,36.17
2019-06-19T09:22:35.905Z,36.35
2019-06-19T09:23:35.881Z,36.35
2019-06-19T09:24:35.859Z,36.62
2019-06-19T09:25:35.846Z,36.28
2019-06-19T09:26:35.828Z,36.12
2019-06-19T09:27:35.816Z,36.12
2019-06-19T09:28:35.806Z,36.16
2019-06-19T09:29:35.774Z,36.15
2019-06-19T09:30:35.765Z,36.09
2019-06-19T09:31:35.753Z,36.32
2019-06-19T09:32:35.740Z,35.93
2019-06-19T09:33:35.721Z,35.37
2019-06-19T09:34:49.504Z,35.19
2019-06-19T09:35:35.686Z,35.36
2019-06-19T09:36:35.664Z,35.48
2019-06-19T09:37:35.658Z,35.68
2019-06-19T09:38:35.644Z,35.97
2019-06-19T09:39:35.622Z,36.47
2019-06-19T09:40:35.624Z,36.51
2019-06-19T09:41:35.623Z,36.25
2019-06-19T09:42:35.603Z,36.12
2019-06-19T09:43:35.555Z,36.27
2019-06-19T09:44:36.406Z,36.72
2019-06-19T09:45:35.547Z,37.06
2019-06-19T09:46:35.550Z,36.39
2019-06-19T09:47:35.505Z,36.27
2019-06-19T09:48:35.488Z,36.20
2019-06-19T09:49:35.487Z,36.15
2019-06-19T09:50:35.507Z,36.31
2019-06-19T09:51:35.455Z,36.43
2019-06-19T09:52:35.432Z,36.57
2019-06-19T09:53:35.403Z,35.99
2019-06-19T09:54:35.381Z,36.03
2019-06-19T09:55:35.361Z,35.80
2019-06-19T09:56:35.341Z,35.65
2019-06-19T09:57:35.320Z,35.78
2019-06-19T09:58:35.297Z,35.96
2019-06-19T09:59:35.288Z,35.77
2019-06-19T10:00:35.273Z,35.66
2019-06-19T10:01:35.252Z,35.48
2019-06-19T10:02:35.237Z,35.41
2019-06-19T10:03:35.230Z,35.47
2019-06-19T10:04:35.296Z,35.53
2019-06-19T10:05:35.188Z,35.68
2019-06-19T10:06:35.200Z,35.85
2019-06-19T10:07:35.148Z,35.77
2019-06-19T10:08:35.139Z,35.40
2019-06-19T10:09:35.125Z,35.48
2019-06-19T10:10:35.138Z,35.71
2019-06-19T10:11:35.126Z,35.58
2019-06-19T10:12:35.086Z,35.70
2019-06-19T10:13:35.054Z,34.99
2019-06-19T10:14:35.052Z,35.10
2019-06-19T10:15:35.089Z,35.53
2019-06-19T10:16:35.018Z,35.94
2019-06-19T10:17:35.006Z,35.78
2019-06-19T10:18:34.949Z,35.60
2019-06-19T10:19:34.967Z,35.59
2019-06-19T10:20:34.971Z,35.75
2019-06-19T10:21:34.950Z,35.89
2019-06-19T10:22:34.898Z,36.09
2019-06-19T10:23:38.013Z,36.59
2019-06-19T10:24:34.901Z,36.76
2019-06-19T10:25:34.848Z,36.53
2019-06-19T10:26:35.157Z,36.53
2019-06-19T10:27:34.819Z,36.22
2019-06-19T10:28:34.808Z,35.81
2019-06-19T10:29:34.805Z,35.93
2019-06-19T10:30:34.754Z,35.77
2019-06-19T10:31:34.735Z,36.05
2019-06-19T10:32:34.717Z,36.29
2019-06-19T10:33:34.702Z,36.41
2019-06-19T10:34:34.730Z,36.59
2019-06-19T10:35:34.681Z,36.25
2019-06-19T10:36:34.653Z,35.81
2019-06-19T10:37:34.635Z,35.65
2019-06-19T10:38:34.607Z,35.63
2019-06-19T10:39:34.589Z,35.38
2019-06-19T10:40:34.597Z,35.68
2019-06-19T10:41:34.573Z,36.07
2019-06-19T10:42:34.564Z,36.08
2019-06-19T10:43:34.538Z,36.08
2019-06-19T10:44:34.509Z,36.51
2019-06-19T10:45:34.502Z,36.94
2019-06-19T10:46:41.287Z,37.10
2019-06-19T10:47:34.513Z,37.02
2019-06-19T10:48:34.455Z,37.31
2019-06-19T10:49:34.435Z,36.99
2019-06-19T10:50:34.436Z,36.29
2019-06-19T10:51:34.395Z,36.60
2019-06-19T10:52:34.375Z,36.60
2019-06-19T10:53:34.389Z,36.50
2019-06-19T10:54:34.347Z,36.64
2019-06-19T10:55:34.323Z,36.29
2019-06-19T10:56:34.296Z,36.22
2019-06-19T10:57:34.283Z,36.07
2019-06-19T10:58:34.272Z,35.77
2019-06-19T10:59:34.253Z,35.71
2019-06-19T11:00:34.241Z,35.38
2019-06-19T11:01:34.209Z,35.31
2019-06-19T11:02:34.202Z,36.15
2019-06-19T11:03:34.178Z,36.39
2019-06-19T11:04:34.161Z,36.51
2019-06-19T11:05:39.715Z,36.34
2019-06-19T11:06:34.123Z,36.28
2019-06-19T11:07:34.122Z,36.51
2019-06-19T11:08:34.170Z,36.05
2019-06-19T11:09:34.137Z,35.62
2019-06-19T11:10:34.063Z,35.36
2019-06-19T11:11:34.061Z,35.26
2019-06-19T11:12:34.023Z,35.10
2019-06-19T11:13:34.021Z,34.73
2019-06-19T11:14:34.066Z,34.21
2019-06-19T11:15:33.997Z,33.94
2019-06-19T11:16:33.972Z,33.60
2019-06-19T11:17:33.974Z,33.54
2019-06-19T11:18:33.985Z,33.45
2019-06-19T11:19:33.922Z,33.60
2019-06-19T11:20:33.908Z,34.17
2019-06-19T11:21:33.866Z,34.75
2019-06-19T11:22:33.858Z,34.44
2019-06-19T11:23:33.840Z,34.64
2019-06-19T11:24:33.828Z,34.89
2019-06-19T11:25:33.797Z,34.99
2019-06-19T11:26:33.798Z,34.88
2019-06-19T11:27:33.743Z,35.09
2019-06-19T11:28:33.732Z,35.19
2019-06-19T11:29:33.711Z,35.26
2019-06-19T11:30:33.698Z,35.04
2019-06-19T11:31:33.680Z,34.91
2019-06-19T11:32:33.660Z,35.41
2019-06-19T11:33:33.644Z,35.52
2019-06-19T11:34:33.642Z,34.96
2019-06-19T11:35:33.604Z,34.05
2019-06-19T11:36:33.605Z,33.61
2019-06-19T11:37:33.583Z,33.76
2019-06-19T11:38:33.556Z,34.21
2019-06-19T11:39:33.557Z,33.82
2019-06-19T11:40:36.679Z,33.57
2019-06-19T11:41:33.549Z,33.22
2019-06-19T11:42:33.481Z,33.28
2019-06-19T11:43:33.458Z,33.16
2019-06-19T11:44:33.457Z,33.22
2019-06-19T11:45:33.426Z,33.01
2019-06-19T11:46:33.423Z,33.16
2019-06-19T11:47:33.415Z,33.34
2019-06-19T11:48:33.371Z,33.90
2019-06-19T11:49:33.375Z,34.19
2019-06-19T11:50:33.365Z,34.50
2019-06-19T11:51:33.346Z,34.66
2019-06-19T11:52:33.306Z,34.47
2019-06-19T11:53:33.374Z,34.75
2019-06-19T11:54:33.310Z,34.31
2019-06-19T11:55:33.309Z,34.12
2019-06-19T11:56:33.275Z,33.72
2019-06-19T11:57:33.213Z,32.96
2019-06-19T11:58:33.387Z,33.39
2019-06-19T11:59:33.167Z,33.68
2019-06-19T12:00:33.950Z,34.35
2019-06-19T12:01:33.136Z,34.58
2019-06-19T12:02:33.119Z,34.43
2019-06-19T12:03:33.105Z,34.44
2019-06-19T12:04:33.072Z,34.06
2019-06-19T12:05:33.064Z,33.71
2019-06-19T12:06:33.058Z,33.42
2019-06-19T12:07:33.014Z,33.16
2019-06-19T12:08:33.039Z,32.87
2019-06-19T12:09:33.016Z,32.70
2019-06-19T12:10:32.974Z,32.26
2019-06-19T12:11:32.954Z,32.08
2019-06-19T12:12:32.928Z,32.10
2019-06-19T12:13:32.939Z,32.69
2019-06-19T12:14:32.901Z,32.88
2019-06-19T12:15:32.880Z,32.74
2019-06-19T12:16:32.872Z,33.29
2019-06-19T12:17:32.838Z,33.87
2019-06-19T12:18:32.854Z,34.15
2019-06-19T12:19:32.852Z,33.78
2019-06-19T12:20:32.797Z,33.28
2019-06-19T12:21:32.806Z,32.81
2019-06-19T12:22:32.772Z,32.35
2019-06-19T12:23:32.762Z,32.85
2019-06-19T12:24:32.762Z,32.78
2019-06-19T12:25:32.697Z,32.70
2019-06-19T12:26:32.680Z,32.38
2019-06-19T12:27:32.669Z,32.22
2019-06-19T12:28:32.637Z,32.06
2019-06-19T12:29:32.664Z,32.37
2019-06-19T12:30:32.626Z,32.82
2019-06-19T12:31:32.606Z,33.57
2019-06-19T12:32:32.541Z,34.17
2019-06-19T12:33:32.632Z,34.66
2019-06-19T12:34:32.506Z,35.07
2019-06-19T12:35:32.485Z,35.07
2019-06-19T12:36:32.467Z,35.16
2019-06-19T12:37:32.516Z,35.19
2019-06-19T12:38:32.463Z,35.03
2019-06-19T12:39:32.430Z,34.94
2019-06-19T12:40:32.394Z,34.37
2019-06-19T12:41:32.383Z,34.69
2019-06-19T12:42:32.364Z,34.96
2019-06-19T12:43:32.367Z,34.82
2019-06-19T12:44:32.329Z,34.97
2019-06-19T12:45:32.307Z,34.56
2019-06-19T12:46:32.287Z,34.78
2019-06-19T12:47:32.302Z,35.36
2019-06-19T12:48:32.258Z,35.11
2019-06-19T12:49:32.245Z,34.65
2019-06-19T12:50:32.209Z,34.78
2019-06-19T12:51:32.210Z,34.99
2019-06-19T12:52:32.207Z,34.99